Latest Coastal Weather Observations for Wynyard

IDT60701

Issued at 4:52 am EST Thursday 3 September 2026 (issued every 10 minutes, with the page automatically refreshed every 10 minutes)

About coastal observations | Map of coastal stations | Coastal observations for TAS | Marine services | Other Formats
Station Details ID: 091107 Name: WYNYARD AIRPORT Lat: -41.00 Lon: 145.73 Height: 12.0 m
Data from the previous 72 hours. | See also: Recent months at Wynyard
Date/Time
EST
Wind Sea
Height
m
Swell Vis
km
Cloud Weather Temp
°C
Press
MSL
hPa
Rain since
9am
mm
Dir  Spd
kts
Gust
kts
Height
m
Period
s
Dir
03/04:43am WNW 18 28 - - - - 10 Partly cloudy - 12.2 999.2 5.6
03/04:39am WNW 18 28 - - - - 10 Partly cloudy - 12.1 999.3 5.6
03/04:30am NW 17 24 - - - - 4 Partly cloudy - 12.0 999.2 5.6
03/04:04am WNW 19 27 - - - - 5 Partly cloudy - 12.0 999.5 5.0
03/04:00am WNW 17 24 - - - - 6 Partly cloudy - 12.1 999.7 5.0
03/03:59am WNW 18 24 - - - - 6 Partly cloudy - 12.1 999.7 5.0
03/03:41am NW 19 31 - - - - 10 Partly cloudy - 12.1 999.8 4.8
03/03:30am WNW 16 27 - - - - 5 Partly cloudy - 12.0 1000.0 4.8
03/03:18am WNW 16 25 - - - - 5 Partly cloudy - 11.9 1000.3 4.8
03/03:00am WNW 13 18 - - - - 10 Cloudy Showers 11.8 1000.8 4.8
03/02:53am WNW 13 16 - - - - 10 Cloudy - 11.8 1001.0 4.8
03/02:39am WNW 14 19 - - - - 5 Cloudy - 11.7 1001.2 4.4
03/02:30am WNW 12 21 - - - - 10 Partly cloudy - 11.8 1001.4 4.4
03/02:27am WNW 11 15 - - - - 10 Partly cloudy - 11.8 1001.5 4.4
03/02:14am WNW 13 21 - - - - 10 Partly cloudy - 11.6 1001.9 4.4
03/02:13am WNW 13 21 - - - - 10 Partly cloudy - 11.6 1001.9 4.4
03/02:00am WNW 16 23 - - - - 3 Partly cloudy - 11.5 1002.1 4.4
03/01:57am WNW 17 24 - - - - 3 Partly cloudy - 11.5 1002.2 4.2
03/01:46am WNW 16 26 - - - - 4 Cloudy - 11.8 1002.2 3.2
03/01:30am WNW 15 21 - - - - 3 Partly cloudy - 11.7 1002.4 3.2
03/01:25am WNW 15 21 - - - - 3 Partly cloudy - 11.8 1002.5 3.0
03/01:05am NW 19 32 - - - - 5 Partly cloudy - 12.1 1002.6 2.2
03/01:00am NW 17 27 - - - - 9 Partly cloudy - 12.1 1002.6 2.2
03/12:59am NW 17 27 - - - - 9 Partly cloudy - 12.1 1002.7 2.2
03/12:49am NW 16 23 - - - - 10 Mostly clear - 12.0 1002.8 2.2
03/12:30am WNW 16 27 - - - - 4 Partly cloudy - 11.8 1003.1 2.2
03/12:27am WNW 15 26 - - - - 5 Partly cloudy - 11.8 1003.2 2.2
03/12:24am NW 14 20 - - - - 8 Partly cloudy - 11.9 1003.2 1.8
03/12:22am WNW 14 19 - - - - 10 Partly cloudy - 12.0 1003.2 1.8
03/12:16am WNW 13 18 - - - - 10 Partly cloudy - 11.9 1003.3 1.8
03/12:01am WNW 12 16 - - - - 5 Partly cloudy - 11.6 1003.7 1.8
03/12:00am WNW 12 16 - - - - 6 Cloudy Showers 11.6 1003.7 1.8
 
Date/Time
EST
Wind Sea
Height
m
Swell Vis
km
Cloud Weather Temp
°C
Press
MSL
hPa
Rain since
9am
mm
Dir  Spd
kts
Gust
kts
Height
m
Period
s
Dir
02/11:50pm WNW 13 18 - - - - 10 Partly cloudy - 11.6 1003.8 1.8
02/11:30pm WNW 15 21 - - - - 5 Partly cloudy - 11.6 1004.1 1.6
02/11:19pm WNW 14 22 - - - - 5 Partly cloudy - 11.7 1004.3 1.6
02/11:00pm WNW 13 17 - - - - 10 Partly cloudy - 11.6 1004.7 1.6
02/10:30pm WNW 13 19 - - - - 10 Partly cloudy - 11.5 1005.3 1.6
02/10:00pm WNW 14 21 - - - - 10 Partly cloudy - 11.3 1005.6 1.6
02/09:50pm WNW 13 17 - - - - 10 Partly cloudy - 11.3 1005.7 1.6
02/09:34pm WNW 12 17 - - - - 5 Mostly clear - 11.2 1005.9 1.6
02/09:30pm WNW 12 17 - - - - 10 Mostly clear - 11.3 1006.0 1.4
02/09:26pm WNW 11 17 - - - - 10 Mostly clear - 11.2 1006.0 1.4
02/09:00pm WNW 14 19 - - - - 2 Cloudy Showers 11.2 1006.3 1.0
02/08:53pm WNW 13 19 - - - - 5 Mostly clear - 11.3 1006.3 1.0
02/08:32pm WNW 11 14 - - - - 10 Mostly clear - 11.2 1006.5 1.0
02/08:30pm WNW 10 14 - - - - 10 Partly cloudy - 11.1 1006.5 1.0
02/08:00pm WNW 9 13 - - - - 5 Partly cloudy - 11.1 1006.7 0.6
02/07:53pm WNW 9 12 - - - - 4 Partly cloudy - 11.0 1006.7 0.6
02/07:41pm WNW 10 13 - - - - 5 Partly cloudy - 11.3 1006.7 0.2
02/07:30pm WNW 9 14 - - - - 10 Partly cloudy - 11.5 1006.8 0.2
02/07:00pm WNW 10 14 - - - - 10 Mostly clear - 11.3 1006.8 0.2
02/06:30pm WNW 9 13 - - - - 10 Partly cloudy - 11.3 1006.9 0.2
02/06:00pm WNW 9 12 - - - - 10 Cloudy Showers 11.0 1006.9 0.2
02/05:58pm WNW 9 12 - - - - 10 Mostly clear - 11.0 1006.9 0.2
02/05:40pm NW 10 17 - - - - 5 Partly cloudy - 11.3 1007.0 0.2
02/05:30pm NW 8 11 - - - - 10 Partly cloudy - 12.1 1007.0 0.0
02/05:00pm WNW 10 14 - - - - 10 Mostly clear - 12.1 1006.9 0.0
02/04:30pm WNW 11 15 - - - - 10 Mostly clear - 12.0 1007.0 0.0
02/04:00pm WNW 10 13 - - - - 10 Partly cloudy - 12.2 1007.2 0.0
02/03:30pm WNW 10 14 - - - - 10 Mostly clear - 11.8 1007.4 0.0
02/03:25pm WNW 10 14 - - - - 10 Mostly clear - 11.6 1007.6 0.0
02/03:03pm WNW 11 14 - - - - 5 Partly cloudy - 11.7 1007.8 0.0
02/03:00pm WNW 11 14 - - - - 8 Cloudy - 11.9 1007.8 0.0
02/02:30pm WNW 12 17 - - - - 10 Mostly clear - 12.3 1007.8 0.0
02/02:00pm WNW 14 19 - - - - 10 Partly cloudy - 13.5 1007.9 0.0
02/01:30pm WNW 15 21 - - - - 10 Partly cloudy - 13.1 1008.3 0.0
02/01:00pm W 12 18 - - - - 10 Mostly clear - 12.5 1008.9 0.0
02/12:48pm WNW 18 25 - - - - 10 Mostly clear - 11.9 1009.1 0.0
02/12:37pm WNW 15 25 - - - - 10 Partly cloudy - 11.8 1009.0 0.0
02/12:30pm WNW 12 17 - - - - 10 Mostly clear - 12.8 1009.0 0.0
02/12:00pm WNW 14 19 - - - - 10 Cloudy - 12.7 1009.2 0.0
02/11:30am W 12 18 - - - - 10 Mostly clear - 13.7 1009.2 0.0
02/11:00am WNW 17 21 - - - - 10 Partly cloudy - 13.1 1009.5 0.0
02/10:30am WNW 14 19 - - - - 10 Mostly clear - 13.9 1009.5 0.0
02/10:00am W 13 17 - - - - 10 Mostly clear - 13.4 1009.8 0.0
02/09:30am WNW 13 18 - - - - 10 Partly cloudy - 12.8 1010.0 0.0
02/09:00am W 11 16 - - - - 10 Partly cloudy - 11.7 1010.0 6.8
02/08:30am W 11 16 - - - - 10 Partly cloudy - 10.9 1010.0 6.8
02/08:00am WNW 9 11 - - - - 10 Partly cloudy - 9.8 1009.8 6.8
02/07:30am WNW 8 10 - - - - 10 Partly cloudy - 8.9 1009.6 6.8
02/07:03am W 12 16 - - - - 10 Partly cloudy - 8.7 1009.4 6.8
02/07:00am W 13 18 - - - - 10 Partly cloudy - 8.7 1009.4 6.8
02/06:53am W 13 19 - - - - 10 Mostly clear - 8.5 1009.6 6.8
02/06:30am NW 5 5 - - - - 10 Partly cloudy - 6.1 1009.2 6.8
02/06:00am WSW 4 5 - - - - 10 Partly cloudy - 5.2 1008.9 6.8
02/05:30am CALM 0 0 - - - - 10 Mostly clear - 5.4 1008.9 6.8
02/05:00am CALM 0 0 - - - - 10 Partly cloudy - 5.0 1008.7 6.8
02/04:30am SW 4 4 - - - - 10 - - 5.2 1008.4 6.8
02/04:00am SW 6 7 - - - - 10 Mostly clear - 6.8 1008.2 6.8
02/03:30am WSW 4 5 - - - - 10 Partly cloudy - 6.7 1008.1 6.8
02/03:00am WSW 4 5 - - - - 10 Mostly clear - 6.2 1008.2 6.8
02/02:30am WSW 6 7 - - - - 10 - - 6.2 1008.4 6.8
02/02:00am WNW 7 8 - - - - 10 - - 7.5 1008.0 6.8
02/01:30am W 10 13 - - - - 10 - - 8.7 1007.9 6.8
02/01:00am W 10 13 - - - - 10 - - 9.2 1007.8 6.8
02/12:30am W 12 17 - - - - 10 - - 9.8 1007.5 6.8
02/12:00am W 11 14 - - - - 10 - - 10.2 1007.3 6.8
 
Date/Time
EST
Wind Sea
Height
m
Swell Vis
km
Cloud Weather Temp
°C
Press
MSL
hPa
Rain since
9am
mm
Dir  Spd
kts
Gust
kts
Height
m
Period
s
Dir
01/11:30pm W 12 15 - - - - 10 Mostly clear - 10.9 1007.1 6.8
01/11:00pm W 11 14 - - - - 10 - - 11.3 1006.9 6.8
01/10:30pm W 11 15 - - - - 10 Mostly clear - 11.6 1006.8 6.8
01/10:00pm W 11 15 - - - - 10 Mostly clear - 12.4 1006.6 6.8
01/09:41pm W 12 15 - - - - 10 Mostly clear - 12.9 1006.9 6.8
01/09:33pm W 12 18 - - - - 10 Partly cloudy - 13.1 1006.8 6.8
01/09:30pm W 13 18 - - - - 10 Partly cloudy - 13.1 1006.9 6.8
01/09:12pm NW 17 25 - - - - 4 Partly cloudy - 13.2 1006.6 6.2
01/09:01pm NW 17 27 - - - - 5 Partly cloudy - 13.3 1006.3 5.8
01/09:00pm NW 16 24 - - - - 6 Cloudy Rain 13.3 1006.4 5.4
01/08:38pm NW 17 26 - - - - 5 Cloudy - 13.3 1006.5 5.0
01/08:30pm NW 18 24 - - - - 8 Cloudy - 13.3 1006.5 4.6
01/08:19pm NW 16 23 - - - - 6 Cloudy - 13.2 1006.4 4.4
01/08:00pm NW 15 21 - - - - 4 Partly cloudy - 13.2 1006.6 4.2
01/07:46pm NW 14 21 - - - - 5 Cloudy - 13.4 1006.6 4.0
01/07:30pm NW 14 19 - - - - 10 Cloudy - 13.5 1006.7 3.6
01/07:18pm WNW 17 22 - - - - 9 Partly cloudy - 13.6 1006.8 3.2
01/07:03pm NW 17 27 - - - - 7 Cloudy - 13.6 1006.9 2.8
01/07:00pm NW 18 27 - - - - 8 Cloudy - 13.6 1006.8 2.8
01/06:31pm NW 19 27 - - - - 8 Cloudy - 13.6 1006.4 2.4
01/06:30pm NW 19 27 - - - - 8 Partly cloudy - 13.6 1006.5 2.4
01/06:22pm NW 18 27 - - - - 8 Partly cloudy - 13.6 1006.5 2.0
01/06:21pm NW 17 27 - - - - 8 Partly cloudy - 13.6 1006.5 1.8
01/06:00pm WNW 12 16 - - - - 10 Cloudy Rain 13.4 1006.7 1.6
01/05:30pm WNW 14 19 - - - - 10 Partly cloudy - 13.6 1006.9 0.8
01/05:00pm WNW 11 14 - - - - 10 Partly cloudy - 14.2 1007.0 0.2
01/04:30pm NW 14 19 - - - - 10 Partly cloudy - 14.5 1007.3 0.0
01/04:00pm WNW 11 16 - - - - 10 Partly cloudy - 14.2 1007.9 0.0
01/03:30pm WNW 11 17 - - - - 10 Partly cloudy - 14.0 1008.2 0.0
01/03:00pm NW 8 11 - - - - 10 Mostly cloudy Showers 13.8 1008.6 0.0
01/02:30pm NW 7 10 - - - - 10 Partly cloudy - 13.5 1008.8 0.0
01/02:00pm NW 9 13 - - - - 10 Partly cloudy - 13.8 1009.4 0.0
01/01:30pm NW 10 14 - - - - 10 Mostly clear - 14.4 1010.3 0.0
01/01:21pm NW 8 12 - - - - 10 Mostly clear - 14.5 1010.3 0.0
01/01:00pm NNE 5 9 - - - - 10 Partly cloudy - 13.8 1011.1 0.0
01/12:30pm ENE 5 7 - - - - 10 Cloudy - 13.5 1012.0 0.0
01/12:00pm ENE 4 5 - - - - 10 Mostly cloudy - 13.4 1012.8 0.0
01/11:30am ENE 5 7 - - - - 10 Partly cloudy - 13.5 1013.5 0.0
01/11:00am E 6 8 - - - - 10 Cloudy - 12.7 1014.3 0.0
01/10:30am E 8 10 - - - - 10 Partly cloudy - 12.2 1014.8 0.0
01/10:00am E 6 8 - - - - 10 Partly cloudy - 12.2 1015.4 0.0
01/09:30am E 7 9 - - - - 10 Cloudy - 11.5 1015.9 0.0
01/09:00am ESE 5 7 - - - - 10 Cloudy - 10.9 1016.5 0.0
01/08:30am CALM 0 0 - - - - 10 Cloudy - 9.6 1017.0 0.0
01/08:00am WSW 1 3 - - - - 10 Cloudy - 8.4 1017.4 0.0
01/07:30am CALM 0 0 - - - - 10 Cloudy - 7.3 1017.5 0.0
01/07:00am W 1 4 - - - - 10 Cloudy - 7.2 1017.8 0.0
01/06:30am WNW 4 5 - - - - 10 Cloudy - 7.3 1018.0 0.0
01/06:00am W 4 5 - - - - 10 Cloudy - 7.2 1018.2 0.0
01/05:30am WSW 4 7 - - - - 10 Cloudy - 7.0 1018.6 0.0
01/05:00am W 4 5 - - - - 10 Cloudy - 6.9 1019.2 0.0
01/04:30am SW 5 7 - - - - 10 Cloudy - 6.6 1019.6 0.0
01/04:00am SW 4 5 - - - - 10 Cloudy - 6.2 1020.0 0.0
01/03:30am SW 2 4 - - - - 10 Cloudy - 6.0 1020.6 0.0
01/03:00am SSW 4 5 - - - - 10 Cloudy - 5.8 1020.9 0.0
01/02:30am SSW 7 8 - - - - 10 Cloudy - 6.1 1021.4 0.0
01/02:00am WSW 8 10 - - - - 10 Cloudy - 6.8 1021.8 0.0
01/01:30am WSW 9 11 - - - - 10 Partly cloudy - 6.0 1022.4 0.0
01/01:21am WSW 7 11 - - - - 10 Partly cloudy - 4.7 1022.5 0.0
01/01:00am W 4 4 - - - - 10 - - 4.9 1022.6 0.0
01/12:30am W 4 4 - - - - 10 - - 5.1 1022.7 0.0
01/12:00am W 6 8 - - - - 10 - - 6.0 1023.0 0.0
 
Date/Time
EST
Wind Sea
Height
m
Swell Vis
km
Cloud Weather Temp
°C
Press
MSL
hPa
Rain since
9am
mm
Dir  Spd
kts
Gust
kts
Height
m
Period
s
Dir
31/11:30pm NW 6 7 - - - - 10 - - 6.8 1023.3 0.0
31/11:00pm WNW 7 8 - - - - 10 - - 7.1 1023.9 0.0
31/10:30pm WNW 7 9 - - - - 10 - - 7.3 1024.1 0.0
31/10:00pm NW 6 8 - - - - 10 - - 7.9 1024.5 0.0
31/09:30pm NW 7 8 - - - - 10 - - 8.3 1024.7 0.0
31/09:00pm NW 6 8 - - - - 10 - - 8.6 1024.6 0.0
31/08:30pm NW 7 9 - - - - 10 - - 8.9 1024.7 0.0
31/08:00pm WNW 8 11 - - - - 10 - - 9.1 1024.8 0.0
31/07:30pm WNW 11 12 - - - - 10 - - 9.5 1024.9 0.0
31/07:00pm WNW 11 13 - - - - 10 - - 10.0 1024.9 0.0
31/06:30pm W 13 17 - - - - 10 - - 10.9 1024.8 0.0
31/06:00pm W 14 18 - - - - 10 - - 11.8 1024.8 0.0
31/05:30pm W 13 17 - - - - 10 - - 12.9 1024.8 0.0
31/05:00pm W 13 17 - - - - 10 - - 14.4 1024.7 0.0
31/04:30pm WNW 13 17 - - - - 10 - - 15.3 1025.1 0.0
31/04:00pm WNW 13 16 - - - - 10 - - 16.1 1025.3 0.0
31/03:30pm WNW 14 17 - - - - 10 - - 16.6 1025.4 0.0
31/03:00pm W 12 16 - - - - 10 - - 17.2 1025.5 0.0
31/02:30pm W 12 15 - - - - 10 - - 17.9 1025.8 0.0
31/02:00pm W 13 17 - - - - 10 - - 17.6 1026.0 0.0
31/01:30pm W 13 19 - - - - 10 - - 17.3 1026.4 0.0
31/01:00pm W 14 19 - - - - 10 - - 17.1 1026.8 0.0
31/12:30pm W 14 19 - - - - 10 - - 16.7 1027.3 0.0
31/12:00pm W 12 15 - - - - 10 - - 16.8 1027.7 0.0
31/11:30am W 15 18 - - - - 10 - - 15.6 1028.0 0.0
31/11:00am W 14 17 - - - - 10 - - 15.4 1028.4 0.0
31/10:30am W 11 15 - - - - 10 - - 14.7 1028.7 0.0
31/10:00am W 11 16 - - - - 10 - - 13.7 1028.7 0.0
31/09:30am W 12 16 - - - - 10 - - 13.0 1029.0 0.0
31/09:00am W 10 14 - - - - 10 - - 12.2 1029.2 0.0
31/08:30am WSW 10 15 - - - - 10 - - 11.4 1029.1 0.0
31/08:00am W 10 14 - - - - 10 - - 10.6 1029.1 0.0
31/07:30am W 9 12 - - - - 10 - - 9.6 1029.0 0.0
31/07:00am W 7 9 - - - - 10 - - 8.1 1028.6 0.0
31/06:30am W 7 9 - - - - 10 - - 8.0 1028.5 0.0
31/06:00am W 8 11 - - - - 10 - - 8.1 1028.5 0.0
31/05:30am W 8 9 - - - - 10 - - 7.8 1028.5 0.0
31/05:00am W 6 9 - - - - 10 - - 7.4 1028.5 0.0

Other formats

Comma delimited format used in spreadsheet applications
http://www.bom.gov.au/fwo/IDT60701/IDT60701.95957.axf

JavaScript Object Notation format (JSON) in row-major order
http://www.bom.gov.au/fwo/IDT60701/IDT60701.95957.json

Data quality

Most of these data are generated automatically and are frequently updated. Quality checks on data are not normally performed. It is possible for incorrect values to appear. Refer to information at About Latest Weather Observations and please check the disclaimer before using these data.